createdAt,value
2018-09-06T00:02:19.039Z,99.90
2018-09-06T00:04:47.563Z,99.90
2018-09-06T00:07:16.152Z,99.90
2018-09-06T00:09:44.634Z,99.90
2018-09-06T00:12:13.055Z,99.90
2018-09-06T00:14:42.504Z,99.90
2018-09-06T00:17:10.951Z,99.90
2018-09-06T00:19:39.426Z,99.90
2018-09-06T00:22:07.868Z,99.90
2018-09-06T00:24:36.376Z,99.90
2018-09-06T00:27:04.848Z,99.90
2018-09-06T00:29:33.309Z,99.90
2018-09-06T00:32:01.808Z,99.90
2018-09-06T00:34:30.349Z,99.90
2018-09-06T00:36:58.830Z,99.90
2018-09-06T00:39:27.248Z,99.90
2018-09-06T00:41:55.758Z,99.90
2018-09-06T00:44:24.169Z,99.90
2018-09-06T00:46:52.642Z,99.90
2018-09-06T00:49:21.005Z,99.90
2018-09-06T00:51:49.384Z,99.90
2018-09-06T00:54:17.890Z,99.90
2018-09-06T00:56:46.284Z,99.90
2018-09-06T00:59:14.705Z,99.90
2018-09-06T01:01:43.175Z,99.90
2018-09-06T01:04:11.603Z,99.90
2018-09-06T01:06:40.111Z,99.90
2018-09-06T01:09:08.616Z,99.90
2018-09-06T01:11:36.981Z,99.90
2018-09-06T01:14:05.515Z,99.90
2018-09-06T01:16:33.942Z,99.90
2018-09-06T01:19:02.394Z,99.90
2018-09-06T01:21:30.822Z,99.90
2018-09-06T01:23:59.287Z,99.90
2018-09-06T01:26:27.814Z,99.90
2018-09-06T01:28:56.233Z,99.90
2018-09-06T01:31:24.831Z,99.90
2018-09-06T01:33:53.513Z,99.90
2018-09-06T01:36:27.322Z,99.90
2018-09-06T01:38:55.870Z,99.90
2018-09-06T01:41:24.315Z,99.90
2018-09-06T01:43:52.796Z,99.90
2018-09-06T01:46:21.410Z,99.90
2018-09-06T01:48:49.944Z,99.90
2018-09-06T01:51:18.417Z,99.90
2018-09-06T01:53:46.986Z,99.90
2018-09-06T01:56:15.400Z,99.90
2018-09-06T01:58:43.937Z,99.90
2018-09-06T02:01:12.342Z,99.90
2018-09-06T02:03:40.790Z,99.90
2018-09-06T02:06:09.238Z,99.90
2018-09-06T02:08:37.623Z,99.90
2018-09-06T02:11:06.086Z,99.90
2018-09-06T02:13:34.458Z,99.90
2018-09-06T02:16:03.080Z,99.90
2018-09-06T02:18:32.339Z,99.90
2018-09-06T02:21:00.980Z,99.90
2018-09-06T02:23:29.680Z,99.90
2018-09-06T02:25:58.047Z,99.90
2018-09-06T02:28:26.470Z,99.90
2018-09-06T02:30:55.006Z,99.90
2018-09-06T02:33:23.431Z,99.90
2018-09-06T02:35:52.098Z,99.90
2018-09-06T02:38:20.698Z,99.90
2018-09-06T02:40:49.067Z,99.90
2018-09-06T02:43:17.558Z,99.90
2018-09-06T02:45:45.942Z,99.90
2018-09-06T02:48:14.485Z,99.90
2018-09-06T02:50:48.239Z,99.90
2018-09-06T02:53:16.710Z,99.90
2018-09-06T02:55:46.222Z,99.90
2018-09-06T02:58:14.646Z,99.90
2018-09-06T03:00:43.078Z,99.90
2018-09-06T03:03:11.555Z,99.90
2018-09-06T03:05:40.054Z,99.90
2018-09-06T03:08:08.422Z,99.90
2018-09-06T03:10:40.042Z,99.90
2018-09-06T03:13:08.520Z,99.90
2018-09-06T03:15:37.000Z,99.90
2018-09-06T03:18:05.391Z,99.90
2018-09-06T03:20:33.991Z,99.90
2018-09-06T03:23:03.241Z,99.90
2018-09-06T03:25:31.804Z,99.90
2018-09-06T03:28:00.236Z,99.90
2018-09-06T03:30:28.751Z,99.90
2018-09-06T03:32:57.184Z,99.90
2018-09-06T03:35:25.534Z,99.90
2018-09-06T03:37:54.106Z,99.90
2018-09-06T03:40:22.534Z,99.90
2018-09-06T03:42:50.890Z,99.90
2018-09-06T03:45:19.302Z,99.90
2018-09-06T03:47:47.767Z,99.90
2018-09-06T03:50:16.220Z,99.90
2018-09-06T03:52:44.676Z,99.90
2018-09-06T03:55:13.179Z,99.90
2018-09-06T03:57:41.740Z,99.90
2018-09-06T04:00:10.220Z,99.90
2018-09-06T04:02:38.588Z,99.90
2018-09-06T04:05:07.064Z,99.90
2018-09-06T04:07:35.596Z,99.90
2018-09-06T04:10:04.212Z,99.90
2018-09-06T04:12:32.684Z,99.90
2018-09-06T04:15:01.114Z,99.90
2018-09-06T04:17:29.592Z,99.90
2018-09-06T04:19:58.207Z,99.90
2018-09-06T04:22:26.674Z,99.90
2018-09-06T04:24:55.166Z,99.90
2018-09-06T04:27:23.659Z,99.90
2018-09-06T04:29:52.093Z,99.90
2018-09-06T04:32:21.165Z,99.90
2018-09-06T04:34:49.627Z,99.90
2018-09-06T04:37:18.121Z,99.90
2018-09-06T04:39:46.651Z,99.90
2018-09-06T04:42:15.158Z,99.90
2018-09-06T04:44:43.765Z,99.90
2018-09-06T04:47:12.221Z,99.90
2018-09-06T04:49:40.797Z,99.90
2018-09-06T04:52:09.220Z,99.90
2018-09-06T04:54:37.725Z,99.90
2018-09-06T04:57:06.189Z,99.90
2018-09-06T04:59:34.706Z,99.90
2018-09-06T05:02:03.165Z,99.90
2018-09-06T05:04:31.767Z,99.90
2018-09-06T05:07:00.210Z,99.90
2018-09-06T05:09:28.789Z,99.90
2018-09-06T05:11:57.266Z,99.90
2018-09-06T05:14:25.685Z,99.90
2018-09-06T05:16:54.105Z,99.90
2018-09-06T05:19:22.575Z,99.90
2018-09-06T05:21:51.074Z,99.90
2018-09-06T05:24:19.666Z,99.90
2018-09-06T05:26:48.122Z,99.90
2018-09-06T05:29:16.581Z,99.90
2018-09-06T05:31:44.995Z,99.90
2018-09-06T05:34:13.390Z,99.90
2018-09-06T05:36:41.913Z,99.90
2018-09-06T05:39:12.583Z,99.90
2018-09-06T05:41:41.610Z,99.90
2018-09-06T05:44:10.875Z,99.90
2018-09-06T05:46:39.704Z,99.90
2018-09-06T05:49:08.230Z,99.90
2018-09-06T05:51:36.857Z,99.90
2018-09-06T05:54:06.228Z,99.90
2018-09-06T05:56:34.647Z,99.90
2018-09-06T05:59:03.322Z,99.90
2018-09-06T06:01:31.791Z,99.90
2018-09-06T06:04:00.248Z,99.90
2018-09-06T06:06:28.760Z,99.90
2018-09-06T06:08:57.210Z,99.90
2018-09-06T06:11:25.623Z,99.90
2018-09-06T06:13:54.058Z,99.90
2018-09-06T06:16:22.523Z,99.90
2018-09-06T06:18:51.016Z,99.90
2018-09-06T06:21:20.273Z,99.90
2018-09-06T06:23:48.837Z,99.90
2018-09-06T06:26:17.330Z,99.90
2018-09-06T06:28:45.777Z,99.90
2018-09-06T06:31:14.200Z,99.90
2018-09-06T06:33:42.737Z,99.90
2018-09-06T06:36:11.141Z,99.90
2018-09-06T06:38:39.742Z,99.90
2018-09-06T06:41:08.318Z,99.90
2018-09-06T06:43:36.874Z,99.90
2018-09-06T06:46:05.314Z,99.90
2018-09-06T06:48:33.799Z,99.90
2018-09-06T06:51:02.338Z,99.90
2018-09-06T06:53:30.830Z,99.90
2018-09-06T06:55:59.304Z,99.90
2018-09-06T06:58:27.882Z,99.90
2018-09-06T07:00:56.367Z,99.90
2018-09-06T07:03:24.882Z,99.90
2018-09-06T07:05:53.432Z,99.90
2018-09-06T07:08:21.886Z,99.90
2018-09-06T07:10:50.398Z,99.90
2018-09-06T07:13:18.844Z,99.90
2018-09-06T07:15:47.352Z,99.90
2018-09-06T07:18:16.606Z,99.90
2018-09-06T07:20:45.128Z,99.90
2018-09-06T07:23:13.591Z,99.90
2018-09-06T07:25:42.089Z,99.90
2018-09-06T07:28:10.574Z,99.90
2018-09-06T07:30:40.019Z,99.90
2018-09-06T07:33:08.349Z,99.90
2018-09-06T07:35:36.834Z,99.90
2018-09-06T07:38:05.416Z,99.90
2018-09-06T07:40:33.955Z,99.90
2018-09-06T07:43:02.465Z,99.90
2018-09-06T07:45:31.009Z,99.90
2018-09-06T07:47:59.580Z,99.90
2018-09-06T07:50:28.091Z,99.90
2018-09-06T07:52:56.507Z,99.90
2018-09-06T07:55:25.015Z,99.90
2018-09-06T07:58:00.070Z,99.90
2018-09-06T08:00:28.447Z,99.90
2018-09-06T08:02:56.975Z,99.90
2018-09-06T08:05:25.366Z,99.90
2018-09-06T08:07:53.850Z,99.90
2018-09-06T08:10:22.222Z,99.90
2018-09-06T08:12:50.739Z,99.90
2018-09-06T08:15:19.232Z,99.90
2018-09-06T08:17:47.671Z,99.90
2018-09-06T08:20:16.158Z,99.90
2018-09-06T08:22:44.642Z,99.90
2018-09-06T08:25:13.063Z,99.90
2018-09-06T08:27:41.498Z,99.90
2018-09-06T08:30:10.150Z,99.90
2018-09-06T08:32:38.592Z,99.90
2018-09-06T08:35:07.113Z,99.90
2018-09-06T08:37:35.650Z,99.90
2018-09-06T08:40:04.085Z,99.90
2018-09-06T08:42:33.443Z,99.90
2018-09-06T08:45:01.986Z,99.90
2018-09-06T08:47:30.582Z,99.90
2018-09-06T08:50:00.160Z,99.90
2018-09-06T08:52:29.588Z,99.90
2018-09-06T08:54:58.026Z,99.90
2018-09-06T08:57:26.584Z,99.90
2018-09-06T08:59:55.278Z,99.90
2018-09-06T09:02:24.938Z,99.90
2018-09-06T09:04:53.463Z,99.90
2018-09-06T09:07:21.981Z,99.90
2018-09-06T09:09:50.492Z,99.90
2018-09-06T09:12:19.020Z,99.90
2018-09-06T09:14:47.495Z,99.90
2018-09-06T09:17:16.036Z,99.90
2018-09-06T09:19:44.554Z,99.90
2018-09-06T09:22:13.228Z,99.90
2018-09-06T09:24:41.621Z,99.90
2018-09-06T09:27:10.203Z,99.90
2018-09-06T09:29:38.684Z,99.90
2018-09-06T09:32:07.073Z,99.90
2018-09-06T09:34:35.715Z,99.90
2018-09-06T09:37:04.275Z,99.90
2018-09-06T09:39:32.775Z,99.90
2018-09-06T09:42:01.534Z,99.90
2018-09-06T09:44:29.989Z,99.90
2018-09-06T09:49:26.228Z,99.90
2018-09-06T09:51:57.942Z,99.90
2018-09-06T09:54:26.582Z,99.90
2018-09-06T09:56:55.089Z,99.90
2018-09-06T09:59:23.586Z,99.90
2018-09-06T10:01:58.113Z,99.90
2018-09-06T10:07:11.354Z,98.00
2018-09-06T10:09:39.769Z,98.60
2018-09-06T10:12:08.356Z,99.70
2018-09-06T10:14:36.951Z,99.00
2018-09-06T10:17:05.630Z,99.80
2018-09-06T10:19:34.166Z,99.90
2018-09-06T10:22:02.762Z,98.90
2018-09-06T10:24:31.210Z,97.90
2018-09-06T10:26:59.709Z,95.80
2018-09-06T10:29:28.151Z,94.70
2018-09-06T10:31:56.672Z,95.10
2018-09-06T10:34:25.224Z,93.20
2018-09-06T10:36:53.682Z,92.40
2018-09-06T10:39:22.197Z,89.20
2018-09-06T10:41:51.920Z,86.90
2018-09-06T10:44:20.401Z,91.30
2018-09-06T10:46:49.022Z,86.40
2018-09-06T10:49:17.474Z,90.60
2018-09-06T10:51:46.010Z,84.40
2018-09-06T10:54:14.570Z,78.40
2018-09-06T10:56:43.255Z,73.10
2018-09-06T10:59:11.845Z,73.30
2018-09-06T11:01:40.336Z,68.10
2018-09-06T11:04:08.958Z,68.70
2018-09-06T11:06:38.381Z,63.50
2018-09-06T11:09:06.944Z,57.40
2018-09-06T11:11:35.443Z,58.10
2018-09-06T11:14:03.916Z,57.10
2018-09-06T11:16:32.341Z,58.20
2018-09-06T11:19:00.874Z,57.50
2018-09-06T11:21:29.411Z,55.70
2018-09-06T11:23:57.906Z,54.30
2018-09-06T11:26:26.233Z,54.80
2018-09-06T11:28:54.589Z,55.80
2018-09-06T11:31:22.971Z,56.30
2018-09-06T11:33:51.582Z,56.00
2018-09-06T11:36:20.042Z,55.30
2018-09-06T11:38:48.469Z,54.90
2018-09-06T11:41:16.881Z,54.80
2018-09-06T11:43:45.379Z,55.30
2018-09-06T11:46:13.809Z,55.00
2018-09-06T11:48:42.245Z,52.50
2018-09-06T11:51:10.798Z,52.80
2018-09-06T11:53:39.267Z,51.30
2018-09-06T11:56:08.178Z,52.00
2018-09-06T11:58:36.777Z,56.10
2018-09-06T12:01:05.240Z,59.30
2018-09-06T12:03:33.716Z,57.60
2018-09-06T12:06:02.264Z,53.00
2018-09-06T12:08:30.557Z,51.50
2018-09-06T12:10:58.960Z,49.50
2018-09-06T12:13:27.395Z,50.80
2018-09-06T12:15:55.880Z,51.20
2018-09-06T12:18:24.403Z,50.20
2018-09-06T12:20:52.900Z,51.40
2018-09-06T12:23:21.407Z,50.00
2018-09-06T12:25:49.907Z,48.60
2018-09-06T12:28:18.299Z,50.00
2018-09-06T12:30:46.766Z,50.10
2018-09-06T12:33:15.237Z,49.90
2018-09-06T12:35:44.930Z,50.80
2018-09-06T12:38:13.378Z,50.90
2018-09-06T12:40:41.752Z,52.30
2018-09-06T12:43:10.165Z,53.50
2018-09-06T12:45:38.608Z,58.40
2018-09-06T12:48:07.137Z,61.30
2018-09-06T12:50:35.780Z,62.10
2018-09-06T12:53:04.277Z,68.10
2018-09-06T12:55:32.810Z,71.80
2018-09-06T12:58:01.262Z,78.50
2018-09-06T13:00:29.760Z,83.90
2018-09-06T13:02:58.888Z,90.20
2018-09-06T13:05:27.397Z,93.90
2018-09-06T13:07:55.869Z,96.30
2018-09-06T13:10:24.273Z,98.70
2018-09-06T13:12:52.730Z,99.90
2018-09-06T13:15:21.292Z,99.90
2018-09-06T13:17:49.746Z,99.90
2018-09-06T13:20:18.287Z,99.90
2018-09-06T13:22:46.854Z,99.90
2018-09-06T13:25:15.374Z,99.90
2018-09-06T13:27:43.970Z,99.90
2018-09-06T13:30:12.494Z,99.90
2018-09-06T13:32:40.986Z,99.90
2018-09-06T13:35:09.466Z,99.90
2018-09-06T13:37:38.410Z,99.90
2018-09-06T13:40:06.841Z,99.90
2018-09-06T13:42:35.394Z,99.90
2018-09-06T13:45:04.083Z,99.90
2018-09-06T13:47:32.590Z,99.90
2018-09-06T13:50:01.074Z,99.90
2018-09-06T13:52:29.608Z,99.90
2018-09-06T13:54:58.059Z,99.90
2018-09-06T13:57:26.626Z,99.90
2018-09-06T13:59:55.201Z,99.90
2018-09-06T14:02:23.741Z,99.90
2018-09-06T14:04:52.218Z,99.90
2018-09-06T14:07:20.651Z,99.90
2018-09-06T14:09:49.347Z,99.90
2018-09-06T14:12:18.130Z,99.90
2018-09-06T14:14:46.644Z,99.90
2018-09-06T14:17:15.148Z,99.90
2018-09-06T14:19:43.721Z,99.90
2018-09-06T14:22:12.162Z,99.90
2018-09-06T14:24:40.641Z,99.90
2018-09-06T14:27:09.206Z,99.90
2018-09-06T14:29:37.758Z,99.90
2018-09-06T14:32:06.254Z,99.90
2018-09-06T14:34:35.000Z,99.90
2018-09-06T14:37:03.822Z,99.90
2018-09-06T14:39:32.262Z,99.90
2018-09-06T14:42:00.568Z,99.90
2018-09-06T14:44:28.952Z,99.90
2018-09-06T14:46:57.411Z,99.90
2018-09-06T14:49:26.583Z,99.90
2018-09-06T14:51:55.092Z,99.90
2018-09-06T14:54:23.495Z,99.90
2018-09-06T14:56:52.587Z,99.90
2018-09-06T14:59:20.995Z,99.90
2018-09-06T15:01:49.500Z,99.90
2018-09-06T15:04:18.066Z,99.90
2018-09-06T15:06:46.636Z,99.90
2018-09-06T15:09:15.099Z,99.90
2018-09-06T15:11:43.583Z,99.90
2018-09-06T15:14:12.124Z,99.90
2018-09-06T15:16:40.770Z,99.90
2018-09-06T15:19:09.316Z,99.90
2018-09-06T15:21:37.874Z,99.90
2018-09-06T15:24:06.426Z,99.90
2018-09-06T15:26:34.904Z,99.90
2018-09-06T15:29:03.381Z,99.90
2018-09-06T15:31:31.937Z,99.90
2018-09-06T15:34:00.490Z,99.90
2018-09-06T15:36:29.044Z,99.90
2018-09-06T15:38:57.522Z,99.90
2018-09-06T15:41:26.002Z,99.90
2018-09-06T15:43:54.532Z,99.90
2018-09-06T15:46:23.153Z,99.90
2018-09-06T15:48:51.705Z,99.90
2018-09-06T15:51:20.126Z,99.90
2018-09-06T15:53:48.562Z,99.90
2018-09-06T15:56:17.124Z,99.90
2018-09-06T15:58:45.487Z,99.90
2018-09-06T16:01:13.925Z,99.90
2018-09-06T16:03:43.446Z,99.90
2018-09-06T16:06:11.930Z,99.90
2018-09-06T16:08:40.544Z,99.90
2018-09-06T16:11:09.054Z,99.90
2018-09-06T16:13:37.485Z,99.90
2018-09-06T16:16:05.959Z,99.90
2018-09-06T16:18:34.426Z,99.90
2018-09-06T16:21:03.003Z,99.90
2018-09-06T16:23:31.458Z,99.90
2018-09-06T16:26:00.110Z,99.90
2018-09-06T16:28:28.574Z,99.90
2018-09-06T16:30:56.906Z,99.90
2018-09-06T16:33:25.502Z,99.90
2018-09-06T16:35:54.209Z,99.90
2018-09-06T16:38:22.604Z,99.90
2018-09-06T16:40:51.146Z,99.90
2018-09-06T16:43:19.623Z,99.90
2018-09-06T16:45:48.173Z,99.90
2018-09-06T16:48:17.476Z,99.90
2018-09-06T16:50:46.028Z,99.90
2018-09-06T16:53:14.528Z,99.90
2018-09-06T16:55:43.008Z,99.90
2018-09-06T16:58:11.469Z,99.90
2018-09-06T17:00:39.905Z,99.90
2018-09-06T17:03:08.385Z,99.90
2018-09-06T17:05:36.913Z,99.90
2018-09-06T17:08:05.326Z,99.90
2018-09-06T17:10:33.770Z,99.90
2018-09-06T17:13:02.209Z,99.90
2018-09-06T17:15:30.739Z,99.90
2018-09-06T17:17:59.315Z,99.90
2018-09-06T17:20:27.848Z,99.90
2018-09-06T17:22:56.245Z,99.90
2018-09-06T17:25:24.638Z,99.90
2018-09-06T17:27:53.095Z,99.90
2018-09-06T17:30:21.689Z,99.90
2018-09-06T17:32:50.303Z,99.90
2018-09-06T17:35:18.670Z,99.90
2018-09-06T17:37:47.037Z,99.90
2018-09-06T17:40:15.568Z,99.90
2018-09-06T17:42:44.026Z,99.90
2018-09-06T17:45:12.458Z,99.90
2018-09-06T17:47:41.025Z,99.90
2018-09-06T17:50:09.475Z,99.90
2018-09-06T17:52:38.027Z,99.90
2018-09-06T17:55:06.696Z,99.90
2018-09-06T17:57:35.122Z,99.90
2018-09-06T18:00:03.710Z,99.90
2018-09-06T18:02:32.463Z,99.90
2018-09-06T18:05:00.827Z,99.90
2018-09-06T18:07:29.216Z,99.90
2018-09-06T18:09:57.736Z,99.90
2018-09-06T18:12:26.462Z,99.90
2018-09-06T18:14:54.949Z,99.90
2018-09-06T18:17:23.472Z,99.90
2018-09-06T18:19:52.011Z,99.90
2018-09-06T18:22:20.513Z,99.90
2018-09-06T18:24:49.210Z,99.90
2018-09-06T18:27:17.853Z,99.90
2018-09-06T18:29:46.299Z,99.90
2018-09-06T18:32:14.692Z,99.90
2018-09-06T18:34:43.335Z,99.90
2018-09-06T18:37:11.862Z,99.90
2018-09-06T18:39:40.316Z,99.90
2018-09-06T18:42:08.804Z,99.90
2018-09-06T18:44:38.007Z,99.90
2018-09-06T18:47:06.597Z,99.90
2018-09-06T18:49:35.276Z,99.90
2018-09-06T18:52:03.758Z,99.90
2018-09-06T18:54:32.191Z,99.90
2018-09-06T18:57:00.581Z,99.90
2018-09-06T18:59:29.140Z,99.90
2018-09-06T19:01:58.228Z,99.90
2018-09-06T19:04:26.779Z,99.90
2018-09-06T19:06:55.309Z,99.90
2018-09-06T19:09:23.863Z,99.90
2018-09-06T19:11:52.315Z,99.90
2018-09-06T19:14:20.775Z,99.90
2018-09-06T19:16:49.247Z,99.90
2018-09-06T19:19:17.811Z,99.90
2018-09-06T19:21:46.286Z,99.90
2018-09-06T19:24:14.776Z,99.90
2018-09-06T19:26:43.258Z,99.90
2018-09-06T19:29:11.718Z,99.90
2018-09-06T19:31:40.349Z,99.90
2018-09-06T19:34:09.008Z,99.90
2018-09-06T19:36:37.411Z,99.90
2018-09-06T19:39:08.793Z,99.90
2018-09-06T19:41:37.170Z,99.90
2018-09-06T19:44:05.689Z,99.90
2018-09-06T19:46:34.141Z,99.90
2018-09-06T19:49:02.713Z,99.90
2018-09-06T19:51:31.024Z,99.90
2018-09-06T19:53:59.432Z,99.90
2018-09-06T19:56:27.828Z,99.90
2018-09-06T19:58:56.349Z,99.90
2018-09-06T20:01:24.860Z,99.90
2018-09-06T20:03:53.248Z,99.90
2018-09-06T20:06:21.783Z,99.90
2018-09-06T20:08:50.281Z,99.90
2018-09-06T20:11:18.664Z,99.90
2018-09-06T20:13:47.127Z,99.90
2018-09-06T20:16:16.411Z,99.90
2018-09-06T20:18:44.979Z,99.90
2018-09-06T20:21:13.513Z,99.90
2018-09-06T20:23:41.893Z,99.90
2018-09-06T20:26:11.108Z,99.90
2018-09-06T20:28:39.319Z,99.90
2018-09-06T20:31:08.356Z,99.90
2018-09-06T20:33:38.139Z,99.90
2018-09-06T20:36:07.106Z,99.90
2018-09-06T20:38:35.814Z,99.90
2018-09-06T20:41:04.333Z,99.90
2018-09-06T20:43:32.937Z,99.90
2018-09-06T20:46:01.415Z,99.90
2018-09-06T20:48:30.110Z,99.90
2018-09-06T20:50:58.573Z,99.90
2018-09-06T20:53:27.081Z,99.90
2018-09-06T20:55:56.117Z,99.90
2018-09-06T20:58:24.562Z,99.90
2018-09-06T21:00:52.922Z,99.90
2018-09-06T21:03:21.662Z,99.90
2018-09-06T21:05:50.183Z,99.90
2018-09-06T21:08:18.698Z,99.90
2018-09-06T21:10:47.198Z,99.90
2018-09-06T21:13:15.634Z,99.90
2018-09-06T21:15:44.162Z,99.90
2018-09-06T21:18:12.584Z,99.90
2018-09-06T21:20:41.286Z,99.90
2018-09-06T21:23:09.746Z,99.90
2018-09-06T21:25:38.251Z,99.90
2018-09-06T21:28:06.655Z,99.90
2018-09-06T21:30:35.135Z,99.90
2018-09-06T21:33:03.611Z,99.90
2018-09-06T21:35:32.145Z,99.90
2018-09-06T21:38:00.705Z,99.90
2018-09-06T21:40:29.258Z,99.90
2018-09-06T21:42:57.759Z,99.90
2018-09-06T21:45:26.446Z,99.90
2018-09-06T21:47:55.037Z,99.90
2018-09-06T21:50:23.610Z,99.90
2018-09-06T21:52:52.098Z,99.90
2018-09-06T21:55:20.661Z,99.90
2018-09-06T21:57:49.187Z,99.90
2018-09-06T22:00:18.281Z,99.90
2018-09-06T22:02:52.010Z,99.90
2018-09-06T22:05:21.138Z,99.90
2018-09-06T22:07:49.561Z,99.90
2018-09-06T22:10:21.398Z,99.90
2018-09-06T22:12:50.716Z,99.90
2018-09-06T22:15:19.466Z,99.90
2018-09-06T22:17:47.945Z,99.90
2018-09-06T22:20:16.419Z,99.90
2018-09-06T22:22:45.077Z,99.90
2018-09-06T22:25:13.621Z,99.90
2018-09-06T22:27:42.078Z,99.90
2018-09-06T22:30:10.683Z,99.90
2018-09-06T22:32:39.192Z,99.90
2018-09-06T22:35:07.777Z,99.90
2018-09-06T22:37:36.277Z,99.90
2018-09-06T22:40:04.942Z,99.90
2018-09-06T22:42:33.358Z,99.90
2018-09-06T22:45:01.790Z,99.90
2018-09-06T22:47:30.550Z,99.90
2018-09-06T22:49:59.094Z,99.90
2018-09-06T22:52:27.592Z,99.90
2018-09-06T22:54:56.199Z,99.90
2018-09-06T22:57:24.713Z,99.90
2018-09-06T22:59:53.071Z,99.90
2018-09-06T23:02:21.475Z,99.90
2018-09-06T23:04:50.045Z,99.90
2018-09-06T23:07:18.510Z,99.90
2018-09-06T23:09:47.050Z,99.90
2018-09-06T23:12:15.572Z,99.90
2018-09-06T23:14:44.141Z,99.90
2018-09-06T23:17:12.745Z,99.90
2018-09-06T23:19:41.227Z,99.90
2018-09-06T23:22:09.695Z,99.90
2018-09-06T23:24:38.215Z,99.90
2018-09-06T23:27:06.793Z,99.90
2018-09-06T23:29:35.278Z,99.90
2018-09-06T23:32:03.793Z,99.90
2018-09-06T23:34:36.780Z,99.90
2018-09-06T23:37:06.254Z,99.90
2018-09-06T23:39:34.922Z,99.90
2018-09-06T23:42:03.746Z,99.90
2018-09-06T23:44:32.230Z,99.90
2018-09-06T23:47:00.840Z,99.90
2018-09-06T23:49:29.408Z,99.90
2018-09-06T23:51:57.841Z,99.90
2018-09-06T23:54:26.250Z,99.90
2018-09-06T23:56:54.690Z,99.90
2018-09-06T23:59:23.158Z,99.90
